sensor_id;sensor_type;location;lat;lon;timestamp;temperature;humidity
25352;DHT22;13304;48.464;8.712;2023-11-22T00:00:44;10.30;92.50
25352;DHT22;13304;48.464;8.712;2023-11-22T00:03:10;10.40;92.50
25352;DHT22;13304;48.464;8.712;2023-11-22T00:05:35;10.40;92.50
25352;DHT22;13304;48.464;8.712;2023-11-22T00:08:01;10.40;92.60
25352;DHT22;13304;48.464;8.712;2023-11-22T00:10:27;10.40;92.60
25352;DHT22;13304;48.464;8.712;2023-11-22T00:12:53;10.40;92.70
25352;DHT22;13304;48.464;8.712;2023-11-22T00:15:18;10.50;92.70
25352;DHT22;13304;48.464;8.712;2023-11-22T00:17:45;10.40;92.70
25352;DHT22;13304;48.464;8.712;2023-11-22T00:20:11;10.50;92.70
25352;DHT22;13304;48.464;8.712;2023-11-22T00:22:37;10.50;92.70
25352;DHT22;13304;48.464;8.712;2023-11-22T00:25:03;10.50;92.70
25352;DHT22;13304;48.464;8.712;2023-11-22T00:27:29;10.50;92.80
25352;DHT22;13304;48.464;8.712;2023-11-22T00:29:55;10.60;92.80
25352;DHT22;13304;48.464;8.712;2023-11-22T00:32:21;10.60;92.80
25352;DHT22;13304;48.464;8.712;2023-11-22T00:34:46;10.60;93.10
25352;DHT22;13304;48.464;8.712;2023-11-22T00:37:13;10.60;92.70
25352;DHT22;13304;48.464;8.712;2023-11-22T00:39:39;10.60;92.70
25352;DHT22;13304;48.464;8.712;2023-11-22T00:42:05;10.60;92.70
25352;DHT22;13304;48.464;8.712;2023-11-22T00:44:31;10.60;92.70
25352;DHT22;13304;48.464;8.712;2023-11-22T00:46:56;10.60;92.70
25352;DHT22;13304;48.464;8.712;2023-11-22T00:49:23;10.60;92.70
25352;DHT22;13304;48.464;8.712;2023-11-22T00:51:49;10.70;92.70
25352;DHT22;13304;48.464;8.712;2023-11-22T00:54:16;10.60;92.70
25352;DHT22;13304;48.464;8.712;2023-11-22T00:56:42;10.60;92.50
25352;DHT22;13304;48.464;8.712;2023-11-22T00:59:07;10.60;92.50
25352;DHT22;13304;48.464;8.712;2023-11-22T01:01:34;10.60;92.50
25352;DHT22;13304;48.464;8.712;2023-11-22T01:04:00;10.70;92.60
25352;DHT22;13304;48.464;8.712;2023-11-22T01:06:25;10.70;92.60
25352;DHT22;13304;48.464;8.712;2023-11-22T01:08:51;10.70;92.70
25352;DHT22;13304;48.464;8.712;2023-11-22T01:11:17;10.70;92.70
25352;DHT22;13304;48.464;8.712;2023-11-22T01:13:42;10.70;92.70
25352;DHT22;13304;48.464;8.712;2023-11-22T01:16:09;10.70;92.70
25352;DHT22;13304;48.464;8.712;2023-11-22T01:18:36;10.70;92.70
25352;DHT22;13304;48.464;8.712;2023-11-22T01:21:02;10.70;92.70
25352;DHT22;13304;48.464;8.712;2023-11-22T01:23:30;10.70;92.60
25352;DHT22;13304;48.464;8.712;2023-11-22T01:25:55;10.70;92.60
25352;DHT22;13304;48.464;8.712;2023-11-22T01:28:21;10.70;92.70
25352;DHT22;13304;48.464;8.712;2023-11-22T01:30:47;10.70;92.70
25352;DHT22;13304;48.464;8.712;2023-11-22T01:33:14;10.70;92.70
25352;DHT22;13304;48.464;8.712;2023-11-22T01:35:40;10.70;92.70
25352;DHT22;13304;48.464;8.712;2023-11-22T01:38:07;10.70;92.50
25352;DHT22;13304;48.464;8.712;2023-11-22T01:40:33;10.60;92.00
25352;DHT22;13304;48.464;8.712;2023-11-22T01:42:59;10.60;91.30
25352;DHT22;13304;48.464;8.712;2023-11-22T01:45:25;10.50;91.30
25352;DHT22;13304;48.464;8.712;2023-11-22T01:47:52;10.40;90.80
25352;DHT22;13304;48.464;8.712;2023-11-22T01:50:18;10.30;90.70
25352;DHT22;13304;48.464;8.712;2023-11-22T01:52:45;10.20;90.60
25352;DHT22;13304;48.464;8.712;2023-11-22T01:55:12;10.10;90.60
25352;DHT22;13304;48.464;8.712;2023-11-22T01:57:39;10.00;90.70
25352;DHT22;13304;48.464;8.712;2023-11-22T02:00:05;10.00;90.90
25352;DHT22;13304;48.464;8.712;2023-11-22T02:02:39;9.90;90.90
25352;DHT22;13304;48.464;8.712;2023-11-22T02:05:05;9.90;91.00
25352;DHT22;13304;48.464;8.712;2023-11-22T02:07:31;9.80;91.20
25352;DHT22;13304;48.464;8.712;2023-11-22T02:10:00;9.70;91.20
25352;DHT22;13304;48.464;8.712;2023-11-22T02:12:28;9.70;91.10
25352;DHT22;13304;48.464;8.712;2023-11-22T02:14:53;9.60;90.90
25352;DHT22;13304;48.464;8.712;2023-11-22T02:17:19;9.60;90.80
25352;DHT22;13304;48.464;8.712;2023-11-22T02:19:45;9.50;90.60
25352;DHT22;13304;48.464;8.712;2023-11-22T02:22:10;9.40;90.40
25352;DHT22;13304;48.464;8.712;2023-11-22T02:24:36;9.40;90.40
25352;DHT22;13304;48.464;8.712;2023-11-22T02:27:02;9.30;90.50
25352;DHT22;13304;48.464;8.712;2023-11-22T02:29:29;9.30;90.40
25352;DHT22;13304;48.464;8.712;2023-11-22T02:31:55;9.20;90.50
25352;DHT22;13304;48.464;8.712;2023-11-22T02:34:20;9.20;90.60
25352;DHT22;13304;48.464;8.712;2023-11-22T02:36:46;9.20;90.80
25352;DHT22;13304;48.464;8.712;2023-11-22T02:39:12;9.20;90.90
25352;DHT22;13304;48.464;8.712;2023-11-22T02:41:39;9.10;91.10
25352;DHT22;13304;48.464;8.712;2023-11-22T02:44:05;9.20;91.10
25352;DHT22;13304;48.464;8.712;2023-11-22T02:46:33;9.10;91.00
25352;DHT22;13304;48.464;8.712;2023-11-22T02:48:59;9.10;90.90
25352;DHT22;13304;48.464;8.712;2023-11-22T02:51:25;9.10;90.90
25352;DHT22;13304;48.464;8.712;2023-11-22T02:53:51;9.10;90.90
25352;DHT22;13304;48.464;8.712;2023-11-22T02:56:17;9.10;90.90
25352;DHT22;13304;48.464;8.712;2023-11-22T02:58:43;9.10;90.90
25352;DHT22;13304;48.464;8.712;2023-11-22T03:01:09;9.10;90.90
25352;DHT22;13304;48.464;8.712;2023-11-22T03:03:35;9.00;90.70
25352;DHT22;13304;48.464;8.712;2023-11-22T03:06:00;9.00;90.70
25352;DHT22;13304;48.464;8.712;2023-11-22T03:08:26;9.00;90.70
25352;DHT22;13304;48.464;8.712;2023-11-22T03:10:53;9.00;90.70
25352;DHT22;13304;48.464;8.712;2023-11-22T03:13:19;8.90;90.50
25352;DHT22;13304;48.464;8.712;2023-11-22T03:15:44;8.90;90.60
25352;DHT22;13304;48.464;8.712;2023-11-22T03:18:10;8.90;90.70
25352;DHT22;13304;48.464;8.712;2023-11-22T03:20:37;8.90;90.60
25352;DHT22;13304;48.464;8.712;2023-11-22T03:23:03;8.80;90.50
25352;DHT22;13304;48.464;8.712;2023-11-22T03:25:29;8.80;90.50
25352;DHT22;13304;48.464;8.712;2023-11-22T03:27:55;8.80;90.50
25352;DHT22;13304;48.464;8.712;2023-11-22T03:30:21;8.80;90.40
25352;DHT22;13304;48.464;8.712;2023-11-22T03:32:47;8.70;90.40
25352;DHT22;13304;48.464;8.712;2023-11-22T03:35:13;8.70;90.40
25352;DHT22;13304;48.464;8.712;2023-11-22T03:37:39;8.70;90.40
25352;DHT22;13304;48.464;8.712;2023-11-22T03:40:05;8.70;90.40
25352;DHT22;13304;48.464;8.712;2023-11-22T03:42:31;8.60;90.40
25352;DHT22;13304;48.464;8.712;2023-11-22T03:44:57;8.60;90.00
25352;DHT22;13304;48.464;8.712;2023-11-22T03:47:24;8.50;89.50
25352;DHT22;13304;48.464;8.712;2023-11-22T03:49:50;8.50;89.60
25352;DHT22;13304;48.464;8.712;2023-11-22T03:52:16;8.40;89.90
25352;DHT22;13304;48.464;8.712;2023-11-22T03:54:41;8.40;90.00
25352;DHT22;13304;48.464;8.712;2023-11-22T03:57:07;8.40;89.90
25352;DHT22;13304;48.464;8.712;2023-11-22T03:59:34;8.30;89.70
25352;DHT22;13304;48.464;8.712;2023-11-22T04:02:00;8.20;89.60
25352;DHT22;13304;48.464;8.712;2023-11-22T04:04:26;8.20;89.50
25352;DHT22;13304;48.464;8.712;2023-11-22T04:06:51;8.20;89.60
25352;DHT22;13304;48.464;8.712;2023-11-22T04:09:18;8.20;89.90
25352;DHT22;13304;48.464;8.712;2023-11-22T04:11:44;8.10;90.00
25352;DHT22;13304;48.464;8.712;2023-11-22T04:14:09;8.10;89.90
25352;DHT22;13304;48.464;8.712;2023-11-22T04:16:35;8.10;89.60
25352;DHT22;13304;48.464;8.712;2023-11-22T04:19:01;8.00;89.80
25352;DHT22;13304;48.464;8.712;2023-11-22T04:21:27;8.00;89.50
25352;DHT22;13304;48.464;8.712;2023-11-22T04:23:53;8.00;89.70
25352;DHT22;13304;48.464;8.712;2023-11-22T04:26:18;7.90;89.10
25352;DHT22;13304;48.464;8.712;2023-11-22T04:28:45;7.90;89.00
25352;DHT22;13304;48.464;8.712;2023-11-22T04:31:11;7.80;89.00
25352;DHT22;13304;48.464;8.712;2023-11-22T04:33:37;7.80;89.20
25352;DHT22;13304;48.464;8.712;2023-11-22T04:36:04;7.80;89.30
25352;DHT22;13304;48.464;8.712;2023-11-22T04:38:29;7.80;89.10
25352;DHT22;13304;48.464;8.712;2023-11-22T04:40:55;7.70;88.90
25352;DHT22;13304;48.464;8.712;2023-11-22T04:43:21;7.70;88.70
25352;DHT22;13304;48.464;8.712;2023-11-22T04:45:46;7.70;88.90
25352;DHT22;13304;48.464;8.712;2023-11-22T04:48:12;7.70;89.00
25352;DHT22;13304;48.464;8.712;2023-11-22T04:50:41;7.60;89.10
25352;DHT22;13304;48.464;8.712;2023-11-22T04:53:07;7.60;89.50
25352;DHT22;13304;48.464;8.712;2023-11-22T04:55:32;7.60;89.70
25352;DHT22;13304;48.464;8.712;2023-11-22T04:57:58;7.60;89.00
25352;DHT22;13304;48.464;8.712;2023-11-22T05:00:24;7.50;88.60
25352;DHT22;13304;48.464;8.712;2023-11-22T05:02:49;7.60;88.80
25352;DHT22;13304;48.464;8.712;2023-11-22T05:05:15;7.50;88.60
25352;DHT22;13304;48.464;8.712;2023-11-22T05:07:41;7.50;89.20
25352;DHT22;13304;48.464;8.712;2023-11-22T05:10:07;7.50;89.40
25352;DHT22;13304;48.464;8.712;2023-11-22T05:12:34;7.50;89.70
25352;DHT22;13304;48.464;8.712;2023-11-22T05:15:01;7.50;89.50
25352;DHT22;13304;48.464;8.712;2023-11-22T05:17:26;7.50;89.70
25352;DHT22;13304;48.464;8.712;2023-11-22T05:19:52;7.60;89.90
25352;DHT22;13304;48.464;8.712;2023-11-22T05:22:18;7.50;89.50
25352;DHT22;13304;48.464;8.712;2023-11-22T05:24:44;7.50;89.60
25352;DHT22;13304;48.464;8.712;2023-11-22T05:27:10;7.50;89.90
25352;DHT22;13304;48.464;8.712;2023-11-22T05:29:36;7.50;89.60
25352;DHT22;13304;48.464;8.712;2023-11-22T05:32:02;7.50;90.00
25352;DHT22;13304;48.464;8.712;2023-11-22T05:34:29;7.50;89.80
25352;DHT22;13304;48.464;8.712;2023-11-22T05:36:54;7.50;90.00
25352;DHT22;13304;48.464;8.712;2023-11-22T05:39:20;7.60;90.00
25352;DHT22;13304;48.464;8.712;2023-11-22T05:41:48;7.60;90.00
25352;DHT22;13304;48.464;8.712;2023-11-22T05:44:14;7.60;89.80
25352;DHT22;13304;48.464;8.712;2023-11-22T05:46:40;7.60;89.70
25352;DHT22;13304;48.464;8.712;2023-11-22T05:49:05;7.60;89.70
25352;DHT22;13304;48.464;8.712;2023-11-22T05:51:32;7.60;89.70
25352;DHT22;13304;48.464;8.712;2023-11-22T05:53:57;7.60;89.70
25352;DHT22;13304;48.464;8.712;2023-11-22T05:56:23;7.50;88.70
25352;DHT22;13304;48.464;8.712;2023-11-22T05:58:49;7.50;88.50
25352;DHT22;13304;48.464;8.712;2023-11-22T06:01:14;7.50;89.40
25352;DHT22;13304;48.464;8.712;2023-11-22T06:03:41;7.50;88.60
25352;DHT22;13304;48.464;8.712;2023-11-22T06:06:06;7.50;88.30
25352;DHT22;13304;48.464;8.712;2023-11-22T06:08:32;7.50;88.50
25352;DHT22;13304;48.464;8.712;2023-11-22T06:10:58;7.50;88.50
25352;DHT22;13304;48.464;8.712;2023-11-22T06:13:25;7.50;88.60
25352;DHT22;13304;48.464;8.712;2023-11-22T06:15:51;7.50;88.30
25352;DHT22;13304;48.464;8.712;2023-11-22T06:18:17;7.40;88.10
25352;DHT22;13304;48.464;8.712;2023-11-22T06:20:44;7.40;87.70
25352;DHT22;13304;48.464;8.712;2023-11-22T06:23:10;7.40;88.00
25352;DHT22;13304;48.464;8.712;2023-11-22T06:25:36;7.40;87.90
25352;DHT22;13304;48.464;8.712;2023-11-22T06:28:02;7.40;87.20
25352;DHT22;13304;48.464;8.712;2023-11-22T06:30:28;7.40;87.80
25352;DHT22;13304;48.464;8.712;2023-11-22T06:32:55;7.40;87.50
25352;DHT22;13304;48.464;8.712;2023-11-22T06:35:21;7.40;87.50
25352;DHT22;13304;48.464;8.712;2023-11-22T06:37:47;7.40;87.60
25352;DHT22;13304;48.464;8.712;2023-11-22T06:40:13;7.30;86.80
25352;DHT22;13304;48.464;8.712;2023-11-22T06:42:40;7.30;87.00
25352;DHT22;13304;48.464;8.712;2023-11-22T06:45:06;7.30;87.00
25352;DHT22;13304;48.464;8.712;2023-11-22T06:47:45;7.30;87.10
25352;DHT22;13304;48.464;8.712;2023-11-22T06:50:11;7.30;86.90
25352;DHT22;13304;48.464;8.712;2023-11-22T06:52:38;7.30;86.70
25352;DHT22;13304;48.464;8.712;2023-11-22T06:55:07;7.30;86.60
25352;DHT22;13304;48.464;8.712;2023-11-22T06:57:34;7.30;86.50
25352;DHT22;13304;48.464;8.712;2023-11-22T07:00:00;7.30;86.90
25352;DHT22;13304;48.464;8.712;2023-11-22T07:02:30;7.30;87.30
25352;DHT22;13304;48.464;8.712;2023-11-22T07:04:56;7.30;87.10
25352;DHT22;13304;48.464;8.712;2023-11-22T07:07:22;7.30;87.20
25352;DHT22;13304;48.464;8.712;2023-11-22T07:09:48;7.30;87.50
25352;DHT22;13304;48.464;8.712;2023-11-22T07:12:14;7.30;87.50
25352;DHT22;13304;48.464;8.712;2023-11-22T07:14:39;7.30;87.60
25352;DHT22;13304;48.464;8.712;2023-11-22T07:17:05;7.20;87.20
25352;DHT22;13304;48.464;8.712;2023-11-22T07:19:32;7.30;87.60
25352;DHT22;13304;48.464;8.712;2023-11-22T07:22:04;7.20;87.70
25352;DHT22;13304;48.464;8.712;2023-11-22T07:24:30;7.30;87.60
25352;DHT22;13304;48.464;8.712;2023-11-22T07:26:59;7.30;87.80
25352;DHT22;13304;48.464;8.712;2023-11-22T07:29:26;7.20;87.30
25352;DHT22;13304;48.464;8.712;2023-11-22T07:31:54;7.20;87.50
25352;DHT22;13304;48.464;8.712;2023-11-22T07:34:21;7.20;87.50
25352;DHT22;13304;48.464;8.712;2023-11-22T07:36:47;7.20;87.50
25352;DHT22;13304;48.464;8.712;2023-11-22T07:39:13;7.20;88.30
25352;DHT22;13304;48.464;8.712;2023-11-22T07:41:38;7.30;87.90
25352;DHT22;13304;48.464;8.712;2023-11-22T07:44:04;7.30;88.10
25352;DHT22;13304;48.464;8.712;2023-11-22T07:46:30;7.30;87.90
25352;DHT22;13304;48.464;8.712;2023-11-22T07:48:56;7.20;87.40
25352;DHT22;13304;48.464;8.712;2023-11-22T07:51:23;7.30;87.60
25352;DHT22;13304;48.464;8.712;2023-11-22T07:53:49;7.30;87.60
25352;DHT22;13304;48.464;8.712;2023-11-22T07:56:15;7.30;87.30
25352;DHT22;13304;48.464;8.712;2023-11-22T07:58:43;7.30;87.30
25352;DHT22;13304;48.464;8.712;2023-11-22T08:01:09;7.30;87.70
25352;DHT22;13304;48.464;8.712;2023-11-22T08:03:39;7.30;87.30
25352;DHT22;13304;48.464;8.712;2023-11-22T08:06:11;7.30;87.30
25352;DHT22;13304;48.464;8.712;2023-11-22T08:08:37;7.30;87.50
25352;DHT22;13304;48.464;8.712;2023-11-22T08:11:05;7.30;87.70
25352;DHT22;13304;48.464;8.712;2023-11-22T08:13:42;7.30;88.00
25352;DHT22;13304;48.464;8.712;2023-11-22T08:16:09;7.30;87.50
25352;DHT22;13304;48.464;8.712;2023-11-22T08:18:34;7.30;87.60
25352;DHT22;13304;48.464;8.712;2023-11-22T08:21:00;7.30;87.80
25352;DHT22;13304;48.464;8.712;2023-11-22T08:23:26;7.30;88.00
25352;DHT22;13304;48.464;8.712;2023-11-22T08:25:56;7.30;87.50
25352;DHT22;13304;48.464;8.712;2023-11-22T08:28:22;7.20;87.80
25352;DHT22;13304;48.464;8.712;2023-11-22T08:30:48;7.30;88.20
25352;DHT22;13304;48.464;8.712;2023-11-22T08:33:14;7.30;87.90
25352;DHT22;13304;48.464;8.712;2023-11-22T08:35:39;7.30;87.70
25352;DHT22;13304;48.464;8.712;2023-11-22T08:38:05;7.30;87.20
25352;DHT22;13304;48.464;8.712;2023-11-22T08:40:34;7.20;87.30
25352;DHT22;13304;48.464;8.712;2023-11-22T08:43:02;7.20;86.10
25352;DHT22;13304;48.464;8.712;2023-11-22T08:45:29;7.30;87.40
25352;DHT22;13304;48.464;8.712;2023-11-22T08:47:57;7.30;85.90
25352;DHT22;13304;48.464;8.712;2023-11-22T08:50:23;7.30;86.50
25352;DHT22;13304;48.464;8.712;2023-11-22T08:52:49;7.20;86.50
25352;DHT22;13304;48.464;8.712;2023-11-22T08:55:18;7.20;85.60
25352;DHT22;13304;48.464;8.712;2023-11-22T08:57:47;7.10;85.20
25352;DHT22;13304;48.464;8.712;2023-11-22T09:00:13;7.10;85.20
25352;DHT22;13304;48.464;8.712;2023-11-22T09:02:40;7.20;85.80
25352;DHT22;13304;48.464;8.712;2023-11-22T09:05:06;7.10;85.60
25352;DHT22;13304;48.464;8.712;2023-11-22T09:07:34;7.10;85.50
25352;DHT22;13304;48.464;8.712;2023-11-22T09:10:02;7.10;86.20
25352;DHT22;13304;48.464;8.712;2023-11-22T09:12:38;7.10;86.30
25352;DHT22;13304;48.464;8.712;2023-11-22T09:15:12;7.10;86.30
25352;DHT22;13304;48.464;8.712;2023-11-22T09:17:43;7.10;85.90
25352;DHT22;13304;48.464;8.712;2023-11-22T09:20:12;7.10;85.40
25352;DHT22;13304;48.464;8.712;2023-11-22T09:22:49;7.10;85.50
25352;DHT22;13304;48.464;8.712;2023-11-22T09:25:25;7.10;85.20
25352;DHT22;13304;48.464;8.712;2023-11-22T09:27:53;7.10;83.80
25352;DHT22;13304;48.464;8.712;2023-11-22T09:30:26;7.10;85.00
25352;DHT22;13304;48.464;8.712;2023-11-22T09:33:06;7.10;84.40
25352;DHT22;13304;48.464;8.712;2023-11-22T09:35:33;7.10;84.70
25352;DHT22;13304;48.464;8.712;2023-11-22T09:38:04;7.10;84.70
25352;DHT22;13304;48.464;8.712;2023-11-22T09:40:30;7.10;83.90
25352;DHT22;13304;48.464;8.712;2023-11-22T09:42:59;7.10;84.60
25352;DHT22;13304;48.464;8.712;2023-11-22T09:45:27;7.10;84.00
25352;DHT22;13304;48.464;8.712;2023-11-22T09:47:55;7.10;84.40
25352;DHT22;13304;48.464;8.712;2023-11-22T09:50:43;7.10;85.10
25352;DHT22;13304;48.464;8.712;2023-11-22T09:53:25;7.10;85.50
25352;DHT22;13304;48.464;8.712;2023-11-22T09:55:52;7.10;85.30
25352;DHT22;13304;48.464;8.712;2023-11-22T09:58:20;7.20;85.10
25352;DHT22;13304;48.464;8.712;2023-11-22T10:00:47;7.20;84.60
25352;DHT22;13304;48.464;8.712;2023-11-22T10:03:13;7.20;84.10
25352;DHT22;13304;48.464;8.712;2023-11-22T10:05:43;7.20;84.80
25352;DHT22;13304;48.464;8.712;2023-11-22T10:08:08;7.20;84.60
25352;DHT22;13304;48.464;8.712;2023-11-22T10:10:36;7.20;85.40
25352;DHT22;13304;48.464;8.712;2023-11-22T10:13:03;7.20;86.00
25352;DHT22;13304;48.464;8.712;2023-11-22T10:15:29;7.20;84.20
25352;DHT22;13304;48.464;8.712;2023-11-22T10:17:59;7.20;83.60
25352;DHT22;13304;48.464;8.712;2023-11-22T10:20:37;7.20;83.80
25352;DHT22;13304;48.464;8.712;2023-11-22T10:23:03;7.20;83.90
25352;DHT22;13304;48.464;8.712;2023-11-22T10:25:29;7.30;84.30
25352;DHT22;13304;48.464;8.712;2023-11-22T10:27:57;7.30;84.70
25352;DHT22;13304;48.464;8.712;2023-11-22T10:30:23;7.20;84.60
25352;DHT22;13304;48.464;8.712;2023-11-22T10:32:50;7.30;84.60
25352;DHT22;13304;48.464;8.712;2023-11-22T10:35:18;7.30;85.00
25352;DHT22;13304;48.464;8.712;2023-11-22T10:37:47;7.30;84.70
25352;DHT22;13304;48.464;8.712;2023-11-22T10:40:14;7.30;84.70
25352;DHT22;13304;48.464;8.712;2023-11-22T10:42:42;7.30;85.10
25352;DHT22;13304;48.464;8.712;2023-11-22T10:45:09;7.20;85.00
25352;DHT22;13304;48.464;8.712;2023-11-22T10:47:38;7.20;85.00
25352;DHT22;13304;48.464;8.712;2023-11-22T10:50:05;7.20;85.20
25352;DHT22;13304;48.464;8.712;2023-11-22T10:52:34;7.10;84.70
25352;DHT22;13304;48.464;8.712;2023-11-22T10:55:05;7.10;85.10
25352;DHT22;13304;48.464;8.712;2023-11-22T10:57:45;7.10;85.30
25352;DHT22;13304;48.464;8.712;2023-11-22T11:00:15;7.10;85.40
25352;DHT22;13304;48.464;8.712;2023-11-22T11:02:44;7.10;85.00
25352;DHT22;13304;48.464;8.712;2023-11-22T11:05:33;7.20;85.80
25352;DHT22;13304;48.464;8.712;2023-11-22T11:08:10;7.10;85.00
25352;DHT22;13304;48.464;8.712;2023-11-22T11:10:41;7.20;85.40
25352;DHT22;13304;48.464;8.712;2023-11-22T11:13:07;7.20;85.50
25352;DHT22;13304;48.464;8.712;2023-11-22T11:15:35;7.20;85.60
25352;DHT22;13304;48.464;8.712;2023-11-22T11:18:01;7.20;85.10
25352;DHT22;13304;48.464;8.712;2023-11-22T11:20:32;7.10;84.70
25352;DHT22;13304;48.464;8.712;2023-11-22T11:23:00;7.20;85.00
25352;DHT22;13304;48.464;8.712;2023-11-22T11:25:27;7.20;85.50
25352;DHT22;13304;48.464;8.712;2023-11-22T11:27:57;7.20;85.00
25352;DHT22;13304;48.464;8.712;2023-11-22T11:32:58;7.20;84.40
25352;DHT22;13304;48.464;8.712;2023-11-22T11:35:44;7.20;85.00
25352;DHT22;13304;48.464;8.712;2023-11-22T11:38:16;7.20;84.90
25352;DHT22;13304;48.464;8.712;2023-11-22T11:40:47;7.20;84.90
25352;DHT22;13304;48.464;8.712;2023-11-22T11:43:12;7.20;84.60
25352;DHT22;13304;48.464;8.712;2023-11-22T11:45:44;7.20;85.00
25352;DHT22;13304;48.464;8.712;2023-11-22T11:48:14;7.20;85.00
25352;DHT22;13304;48.464;8.712;2023-11-22T11:50:40;7.20;85.30
25352;DHT22;13304;48.464;8.712;2023-11-22T11:53:06;7.20;85.30
25352;DHT22;13304;48.464;8.712;2023-11-22T11:55:32;7.20;85.30
25352;DHT22;13304;48.464;8.712;2023-11-22T11:58:04;7.20;85.20
25352;DHT22;13304;48.464;8.712;2023-11-22T12:00:31;7.20;84.90
25352;DHT22;13304;48.464;8.712;2023-11-22T12:02:56;7.20;85.10
25352;DHT22;13304;48.464;8.712;2023-11-22T12:05:42;7.20;85.00
25352;DHT22;13304;48.464;8.712;2023-11-22T12:08:08;7.20;85.30
25352;DHT22;13304;48.464;8.712;2023-11-22T12:10:34;7.20;85.40
25352;DHT22;13304;48.464;8.712;2023-11-22T12:12:59;7.20;84.60
25352;DHT22;13304;48.464;8.712;2023-11-22T12:15:25;7.30;85.10
25352;DHT22;13304;48.464;8.712;2023-11-22T12:17:51;7.20;84.90
25352;DHT22;13304;48.464;8.712;2023-11-22T12:20:20;7.20;85.10
25352;DHT22;13304;48.464;8.712;2023-11-22T12:22:47;7.20;84.70
25352;DHT22;13304;48.464;8.712;2023-11-22T12:25:14;7.20;84.50
25352;DHT22;13304;48.464;8.712;2023-11-22T12:27:43;7.20;84.00
25352;DHT22;13304;48.464;8.712;2023-11-22T12:30:48;7.20;83.60
25352;DHT22;13304;48.464;8.712;2023-11-22T12:33:14;7.20;83.80
25352;DHT22;13304;48.464;8.712;2023-11-22T12:35:43;7.20;84.50
25352;DHT22;13304;48.464;8.712;2023-11-22T12:38:09;7.10;83.30
25352;DHT22;13304;48.464;8.712;2023-11-22T12:40:35;7.20;84.10
25352;DHT22;13304;48.464;8.712;2023-11-22T12:43:02;7.20;84.50
25352;DHT22;13304;48.464;8.712;2023-11-22T12:45:30;7.20;84.40
25352;DHT22;13304;48.464;8.712;2023-11-22T12:47:56;7.10;83.90
25352;DHT22;13304;48.464;8.712;2023-11-22T12:50:38;7.10;83.40
25352;DHT22;13304;48.464;8.712;2023-11-22T12:53:13;7.00;82.90
25352;DHT22;13304;48.464;8.712;2023-11-22T12:55:47;7.00;83.10
25352;DHT22;13304;48.464;8.712;2023-11-22T12:58:18;7.00;82.80
25352;DHT22;13304;48.464;8.712;2023-11-22T13:00:46;6.90;83.20
25352;DHT22;13304;48.464;8.712;2023-11-22T13:03:12;6.90;83.00
25352;DHT22;13304;48.464;8.712;2023-11-22T13:05:45;6.90;82.90
25352;DHT22;13304;48.464;8.712;2023-11-22T13:08:12;6.80;82.50
25352;DHT22;13304;48.464;8.712;2023-11-22T13:10:44;6.80;83.40
25352;DHT22;13304;48.464;8.712;2023-11-22T13:13:12;6.70;82.90
25352;DHT22;13304;48.464;8.712;2023-11-22T13:15:41;6.70;83.40
25352;DHT22;13304;48.464;8.712;2023-11-22T13:18:07;6.70;83.80
25352;DHT22;13304;48.464;8.712;2023-11-22T13:20:36;6.70;83.20
25352;DHT22;13304;48.464;8.712;2023-11-22T13:23:04;6.70;83.40
25352;DHT22;13304;48.464;8.712;2023-11-22T13:25:29;6.70;83.60
25352;DHT22;13304;48.464;8.712;2023-11-22T13:27:55;6.70;83.90
25352;DHT22;13304;48.464;8.712;2023-11-22T13:30:22;6.70;84.30
25352;DHT22;13304;48.464;8.712;2023-11-22T13:32:55;6.70;84.60
25352;DHT22;13304;48.464;8.712;2023-11-22T13:35:24;6.70;84.40
25352;DHT22;13304;48.464;8.712;2023-11-22T13:37:52;6.70;84.00
25352;DHT22;13304;48.464;8.712;2023-11-22T13:40:19;6.70;83.50
25352;DHT22;13304;48.464;8.712;2023-11-22T13:42:51;6.70;83.90
25352;DHT22;13304;48.464;8.712;2023-11-22T13:45:19;6.70;83.90
25352;DHT22;13304;48.464;8.712;2023-11-22T13:47:53;6.80;84.00
25352;DHT22;13304;48.464;8.712;2023-11-22T13:50:23;6.80;83.60
25352;DHT22;13304;48.464;8.712;2023-11-22T13:52:49;6.80;83.80
25352;DHT22;13304;48.464;8.712;2023-11-22T13:55:16;6.80;83.40
25352;DHT22;13304;48.464;8.712;2023-11-22T13:57:45;6.80;83.30
25352;DHT22;13304;48.464;8.712;2023-11-22T14:00:10;6.80;82.60
25352;DHT22;13304;48.464;8.712;2023-11-22T14:02:39;6.90;83.60
25352;DHT22;13304;48.464;8.712;2023-11-22T14:05:07;6.90;84.20
25352;DHT22;13304;48.464;8.712;2023-11-22T14:07:36;6.90;84.40
25352;DHT22;13304;48.464;8.712;2023-11-22T14:10:02;6.90;84.50
25352;DHT22;13304;48.464;8.712;2023-11-22T14:12:29;7.00;84.60
25352;DHT22;13304;48.464;8.712;2023-11-22T14:14:56;7.00;84.40
25352;DHT22;13304;48.464;8.712;2023-11-22T14:17:22;7.00;84.40
25352;DHT22;13304;48.464;8.712;2023-11-22T14:19:49;7.10;84.60
25352;DHT22;13304;48.464;8.712;2023-11-22T14:22:15;7.10;84.60
25352;DHT22;13304;48.464;8.712;2023-11-22T14:24:42;7.10;84.30
25352;DHT22;13304;48.464;8.712;2023-11-22T14:27:10;7.10;84.40
25352;DHT22;13304;48.464;8.712;2023-11-22T14:29:36;7.20;84.50
25352;DHT22;13304;48.464;8.712;2023-11-22T14:32:02;7.20;84.70
25352;DHT22;13304;48.464;8.712;2023-11-22T14:34:28;7.20;83.90
25352;DHT22;13304;48.464;8.712;2023-11-22T14:36:54;7.20;83.80
25352;DHT22;13304;48.464;8.712;2023-11-22T14:39:20;7.20;83.50
25352;DHT22;13304;48.464;8.712;2023-11-22T14:41:46;7.30;83.40
25352;DHT22;13304;48.464;8.712;2023-11-22T14:44:13;7.30;83.10
25352;DHT22;13304;48.464;8.712;2023-11-22T14:46:39;7.30;83.10
25352;DHT22;13304;48.464;8.712;2023-11-22T14:49:05;7.30;83.30
25352;DHT22;13304;48.464;8.712;2023-11-22T14:51:31;7.30;83.00
25352;DHT22;13304;48.464;8.712;2023-11-22T14:53:59;7.30;82.90
25352;DHT22;13304;48.464;8.712;2023-11-22T14:56:25;7.20;81.90
25352;DHT22;13304;48.464;8.712;2023-11-22T14:58:50;7.20;82.60
25352;DHT22;13304;48.464;8.712;2023-11-22T15:01:22;7.20;82.90
25352;DHT22;13304;48.464;8.712;2023-11-22T15:03:51;7.20;82.70
25352;DHT22;13304;48.464;8.712;2023-11-22T15:06:20;7.00;82.50
25352;DHT22;13304;48.464;8.712;2023-11-22T15:08:46;7.10;82.70
25352;DHT22;13304;48.464;8.712;2023-11-22T15:11:13;7.10;82.90
25352;DHT22;13304;48.464;8.712;2023-11-22T15:13:41;7.00;82.50
25352;DHT22;13304;48.464;8.712;2023-11-22T15:16:07;7.10;82.70
25352;DHT22;13304;48.464;8.712;2023-11-22T15:18:33;7.00;83.30
25352;DHT22;13304;48.464;8.712;2023-11-22T15:20:58;7.00;83.30
25352;DHT22;13304;48.464;8.712;2023-11-22T15:23:24;7.00;83.80
25352;DHT22;13304;48.464;8.712;2023-11-22T15:25:50;7.00;83.70
25352;DHT22;13304;48.464;8.712;2023-11-22T15:28:16;7.00;83.90
25352;DHT22;13304;48.464;8.712;2023-11-22T15:30:51;6.90;84.00
25352;DHT22;13304;48.464;8.712;2023-11-22T15:33:22;7.00;84.10
25352;DHT22;13304;48.464;8.712;2023-11-22T15:35:48;7.00;84.40
25352;DHT22;13304;48.464;8.712;2023-11-22T15:38:14;7.00;84.50
25352;DHT22;13304;48.464;8.712;2023-11-22T15:40:39;7.00;84.60
25352;DHT22;13304;48.464;8.712;2023-11-22T15:43:05;7.00;84.50
25352;DHT22;13304;48.464;8.712;2023-11-22T15:45:31;7.00;82.40
25352;DHT22;13304;48.464;8.712;2023-11-22T15:47:57;7.00;81.60